createdAt,value
2019-02-12T00:00:05.252Z,95.09
2019-02-12T00:02:34.320Z,95.15
2019-02-12T00:05:03.420Z,95.08
2019-02-12T00:07:32.462Z,95.14
2019-02-12T00:10:01.611Z,94.62
2019-02-12T00:12:31.245Z,95.70
2019-02-12T00:15:00.399Z,95.29
2019-02-12T00:17:29.488Z,95.07
2019-02-12T00:19:58.939Z,95.61
2019-02-12T00:22:28.052Z,95.92
2019-02-12T00:24:57.172Z,95.21
2019-02-12T00:27:26.390Z,94.89
2019-02-12T00:29:55.486Z,94.94
2019-02-12T00:32:24.875Z,94.95
2019-02-12T00:34:53.923Z,94.89
2019-02-12T00:37:22.998Z,95.04
2019-02-12T00:39:52.427Z,95.18
2019-02-12T00:42:21.530Z,94.87
2019-02-12T00:44:50.686Z,94.26
2019-02-12T00:47:19.806Z,94.49
2019-02-12T00:49:48.937Z,94.13
2019-02-12T00:52:18.331Z,94.26
2019-02-12T00:54:47.398Z,94.26
2019-02-12T00:57:16.501Z,93.97
2019-02-12T00:59:45.544Z,94.12
2019-02-12T01:02:14.604Z,93.82
2019-02-12T01:04:43.736Z,93.29
2019-02-12T01:07:13.152Z,93.34
2019-02-12T01:09:42.286Z,93.43
2019-02-12T01:12:11.669Z,93.86
2019-02-12T01:14:41.126Z,94.09
2019-02-12T01:17:10.245Z,94.49
2019-02-12T01:19:39.314Z,94.54
2019-02-12T01:22:08.656Z,94.69
2019-02-12T01:24:37.744Z,94.66
2019-02-12T01:27:06.812Z,94.59
2019-02-12T01:29:36.220Z,94.49
2019-02-12T01:32:05.344Z,94.35
2019-02-12T01:34:34.713Z,94.21
2019-02-12T01:37:04.632Z,94.12
2019-02-12T01:39:33.688Z,94.17
2019-02-12T01:42:03.358Z,93.98
2019-02-12T01:44:32.467Z,93.69
2019-02-12T01:47:01.837Z,93.84
2019-02-12T01:49:31.247Z,94.02
2019-02-12T01:52:00.709Z,94.19
2019-02-12T01:54:29.762Z,94.28
2019-02-12T01:56:59.130Z,94.48
2019-02-12T01:59:28.541Z,94.67
2019-02-12T02:01:57.665Z,94.83
2019-02-12T02:04:26.745Z,94.12
2019-02-12T02:06:55.817Z,93.83
2019-02-12T02:09:25.204Z,94.30
2019-02-12T02:11:54.304Z,94.34
2019-02-12T02:14:23.386Z,94.56
2019-02-12T02:16:52.452Z,94.59
2019-02-12T02:19:21.561Z,94.23
2019-02-12T02:21:50.694Z,94.54
2019-02-12T02:24:20.072Z,94.40
2019-02-12T02:26:49.178Z,94.91
2019-02-12T02:29:18.260Z,95.08
2019-02-12T02:31:47.759Z,95.08
2019-02-12T02:34:16.836Z,95.31
2019-02-12T02:36:45.895Z,95.29
2019-02-12T02:39:14.985Z,95.23
2019-02-12T02:41:44.785Z,95.30
2019-02-12T02:44:13.872Z,95.10
2019-02-12T02:46:43.321Z,95.06
2019-02-12T02:49:12.406Z,95.16
2019-02-12T02:51:41.518Z,95.19
2019-02-12T02:54:10.738Z,95.36
2019-02-12T02:56:40.362Z,95.34
2019-02-12T02:59:09.436Z,95.25
2019-02-12T03:01:38.582Z,95.36
2019-02-12T03:04:07.671Z,95.48
2019-02-12T03:06:36.752Z,95.50
2019-02-12T03:09:08.020Z,95.17
2019-02-12T03:11:37.216Z,94.94
2019-02-12T03:14:06.648Z,94.59
2019-02-12T03:16:35.756Z,94.56
2019-02-12T03:19:04.840Z,94.49
2019-02-12T03:21:33.883Z,94.71
2019-02-12T03:24:02.940Z,94.39
2019-02-12T03:26:32.328Z,94.29
2019-02-12T03:29:01.433Z,94.12
2019-02-12T03:31:30.461Z,94.77
2019-02-12T03:33:59.765Z,94.58
2019-02-12T03:36:28.750Z,94.57
2019-02-12T03:38:57.804Z,94.80
2019-02-12T03:41:27.117Z,94.72
2019-02-12T03:43:56.427Z,94.72
2019-02-12T03:46:25.491Z,95.14
2019-02-12T03:48:54.835Z,95.31
2019-02-12T03:51:24.221Z,95.59
2019-02-12T03:53:53.693Z,95.69
2019-02-12T03:56:22.694Z,95.65
2019-02-12T03:58:51.809Z,95.92
2019-02-12T04:01:21.244Z,95.72
2019-02-12T04:03:50.605Z,96.02
2019-02-12T04:06:19.597Z,95.82
2019-02-12T04:08:48.609Z,95.78
2019-02-12T04:11:17.611Z,96.12
2019-02-12T04:13:48.395Z,95.43
2019-02-12T04:16:17.778Z,95.60
2019-02-12T04:18:48.771Z,95.61
2019-02-12T04:21:17.737Z,95.29
2019-02-12T04:23:47.903Z,95.65
2019-02-12T04:26:16.964Z,96.10
2019-02-12T04:28:47.383Z,96.68
2019-02-12T04:31:16.383Z,97.02
2019-02-12T04:33:45.461Z,97.39
2019-02-12T04:36:15.236Z,98.03
2019-02-12T04:38:44.327Z,98.17
2019-02-12T04:41:13.350Z,98.40
2019-02-12T04:43:42.759Z,98.58
2019-02-12T04:46:11.757Z,98.58
2019-02-12T04:48:40.802Z,98.64
2019-02-12T04:51:09.840Z,98.78
2019-02-12T04:53:38.865Z,98.68
2019-02-12T04:56:08.005Z,98.65
2019-02-12T04:58:37.045Z,98.55
2019-02-12T05:01:06.427Z,98.71
2019-02-12T05:03:35.478Z,98.88
2019-02-12T05:06:04.499Z,98.80
2019-02-12T05:09:10.420Z,98.80
2019-02-12T05:11:39.627Z,98.51
2019-02-12T05:14:08.659Z,98.46
2019-02-12T05:16:38.059Z,98.24
2019-02-12T05:19:07.773Z,98.05
2019-02-12T05:21:36.845Z,98.26
2019-02-12T05:24:05.905Z,98.09
2019-02-12T05:26:34.923Z,97.36
2019-02-12T05:29:03.938Z,96.73
2019-02-12T05:31:32.967Z,96.83
2019-02-12T05:34:01.975Z,97.07
2019-02-12T05:36:31.037Z,97.90
2019-02-12T05:39:00.450Z,98.20
2019-02-12T05:41:29.849Z,98.81
2019-02-12T05:43:59.149Z,98.89
2019-02-12T05:46:28.211Z,99.05
2019-02-12T05:48:57.583Z,99.19
2019-02-12T05:51:26.993Z,99.42
2019-02-12T05:53:56.215Z,99.59
2019-02-12T05:56:25.346Z,99.55
2019-02-12T05:58:54.389Z,99.41
2019-02-12T06:01:23.419Z,99.36
2019-02-12T06:03:52.429Z,99.29
2019-02-12T06:06:21.561Z,99.32
2019-02-12T06:08:50.565Z,99.35
2019-02-12T06:11:19.611Z,99.34
2019-02-12T06:13:48.694Z,99.17
2019-02-12T06:16:17.775Z,99.18
2019-02-12T06:18:46.784Z,99.17
2019-02-12T06:21:15.805Z,98.94
2019-02-12T06:23:45.219Z,98.91
2019-02-12T06:26:14.235Z,98.68
2019-02-12T06:28:43.273Z,98.66
2019-02-12T06:31:12.580Z,98.68
2019-02-12T06:33:41.661Z,98.70
2019-02-12T06:36:10.666Z,98.85
2019-02-12T06:38:40.035Z,98.86
2019-02-12T06:41:09.723Z,98.98
2019-02-12T06:43:38.765Z,99.17
2019-02-12T06:46:07.838Z,99.36
2019-02-12T06:48:37.575Z,99.42
2019-02-12T06:51:06.594Z,99.49
2019-02-12T06:53:36.005Z,99.56
2019-02-12T06:56:05.594Z,99.55
2019-02-12T06:58:35.049Z,99.60
2019-02-12T07:01:04.052Z,99.64
2019-02-12T07:03:59.511Z,99.58
2019-02-12T07:06:43.021Z,99.64
2019-02-12T07:09:19.491Z,99.67
2019-02-12T07:12:28.191Z,99.70
2019-02-12T07:15:27.571Z,99.66
2019-02-12T07:19:04.765Z,99.62
2019-02-12T07:22:05.113Z,99.52
2019-02-12T07:25:09.827Z,99.41
2019-02-12T07:28:15.207Z,99.31
2019-02-12T07:31:19.407Z,99.29
2019-02-12T07:34:14.655Z,99.20
2019-02-12T07:37:12.097Z,99.19
2019-02-12T07:40:11.151Z,98.99
2019-02-12T07:42:58.828Z,98.45
2019-02-12T07:46:27.009Z,97.90
2019-02-12T07:49:16.277Z,97.80
2019-02-12T07:52:19.189Z,97.97
2019-02-12T07:55:36.113Z,98.31
2019-02-12T07:58:38.815Z,98.61
2019-02-12T08:01:17.609Z,98.80
2019-02-12T08:04:15.808Z,98.97
2019-02-12T08:07:06.033Z,99.12
2019-02-12T08:10:00.871Z,99.16
2019-02-12T08:12:53.501Z,99.00
2019-02-12T08:15:44.949Z,98.87
2019-02-12T08:18:55.236Z,98.75
2019-02-12T08:22:11.457Z,98.54
2019-02-12T08:25:11.914Z,98.11
2019-02-12T08:28:25.291Z,97.75
2019-02-12T08:31:11.676Z,97.62
2019-02-12T08:34:27.283Z,97.89
2019-02-12T08:37:31.993Z,98.12
2019-02-12T08:40:45.435Z,98.15
2019-02-12T08:43:44.624Z,98.17
2019-02-12T08:46:38.603Z,98.23
2019-02-12T08:49:39.664Z,98.31
2019-02-12T08:53:02.009Z,98.23
2019-02-12T08:55:57.428Z,98.36
2019-02-12T08:58:42.804Z,97.95
2019-02-12T09:01:59.370Z,97.33
2019-02-12T09:04:56.216Z,97.10
2019-02-12T09:07:44.896Z,96.69
2019-02-12T09:10:58.570Z,95.99
2019-02-12T09:13:43.675Z,94.31
2019-02-12T09:17:04.176Z,93.20
2019-02-12T09:20:21.636Z,92.76
2019-02-12T09:23:43.036Z,92.96
2019-02-12T09:26:50.619Z,92.81
2019-02-12T09:30:06.709Z,90.93
2019-02-12T09:33:15.307Z,91.21
2019-02-12T09:36:30.160Z,91.95
2019-02-12T09:39:26.473Z,92.27
2019-02-12T09:42:06.271Z,91.77
2019-02-12T09:45:14.638Z,88.93
2019-02-12T09:47:56.241Z,85.72
2019-02-12T09:51:00.832Z,76.41
2019-02-12T09:54:26.162Z,74.11
2019-02-12T09:57:48.644Z,77.48
2019-02-12T10:00:47.934Z,77.81
2019-02-12T10:03:57.781Z,79.85
2019-02-12T10:07:08.390Z,81.90
2019-02-12T10:10:03.675Z,84.06
2019-02-12T10:13:22.752Z,80.51
2019-02-12T10:16:45.050Z,79.56
2019-02-12T10:19:50.041Z,81.01
2019-02-12T10:23:21.130Z,80.95
2019-02-12T10:25:59.028Z,79.07
2019-02-12T10:29:15.212Z,75.10
2019-02-12T10:31:43.478Z,73.05
2019-02-12T10:34:12.854Z,66.28
2019-02-12T10:36:41.904Z,69.29
2019-02-12T10:39:15.298Z,70.86
2019-02-12T10:41:44.446Z,73.25
2019-02-12T10:44:13.840Z,73.81
2019-02-12T10:46:43.633Z,72.17
2019-02-12T10:49:12.646Z,67.69
2019-02-12T10:51:41.683Z,65.18
2019-02-12T10:54:13.484Z,60.84
2019-02-12T10:56:42.486Z,58.97
2019-02-12T10:59:11.542Z,57.31
2019-02-12T11:01:40.574Z,54.85
2019-02-12T11:04:10.240Z,56.17
2019-02-12T11:06:39.265Z,54.25
2019-02-12T11:09:09.096Z,52.71
2019-02-12T11:11:38.517Z,53.49
2019-02-12T11:14:08.200Z,55.26
2019-02-12T11:16:37.240Z,54.80
2019-02-12T11:19:06.338Z,52.33
2019-02-12T11:21:35.712Z,50.23
2019-02-12T11:24:05.120Z,47.93
2019-02-12T11:26:34.264Z,44.18
2019-02-12T11:29:03.626Z,47.24
2019-02-12T11:31:32.693Z,47.10
2019-02-12T11:34:02.018Z,46.07
2019-02-12T11:36:31.105Z,43.70
2019-02-12T11:39:00.324Z,45.12
2019-02-12T11:41:29.704Z,47.52
2019-02-12T11:43:59.011Z,43.38
2019-02-12T11:46:28.022Z,43.85
2019-02-12T11:48:57.051Z,45.50
2019-02-12T11:51:26.440Z,46.28
2019-02-12T11:53:55.828Z,49.20
2019-02-12T11:56:25.254Z,47.11
2019-02-12T11:58:54.282Z,46.54
2019-02-12T12:01:26.446Z,46.81
2019-02-12T12:03:58.298Z,46.53
2019-02-12T12:06:28.218Z,45.20
2019-02-12T12:08:57.288Z,46.64
2019-02-12T12:11:26.352Z,47.36
2019-02-12T12:13:55.444Z,44.57
2019-02-12T12:16:24.818Z,48.72
2019-02-12T12:18:54.528Z,45.64
2019-02-12T12:21:23.723Z,47.24
2019-02-12T12:23:52.758Z,48.71
2019-02-12T12:26:22.133Z,49.35
2019-02-12T12:28:51.212Z,50.50
2019-02-12T12:31:20.227Z,49.75
2019-02-12T12:33:49.499Z,50.16
2019-02-12T12:36:18.556Z,49.99
2019-02-12T12:38:48.864Z,50.33
2019-02-12T12:41:17.966Z,50.78
2019-02-12T12:43:47.024Z,48.96
2019-02-12T12:46:16.026Z,47.31
2019-02-12T12:48:45.317Z,46.61
2019-02-12T12:51:14.314Z,46.83
2019-02-12T12:53:43.625Z,45.54
2019-02-12T12:56:12.666Z,43.63
2019-02-12T12:58:41.688Z,46.74
2019-02-12T13:01:10.728Z,47.43
2019-02-12T13:03:39.795Z,48.86
2019-02-12T13:06:09.368Z,52.74
2019-02-12T13:08:39.251Z,52.91
2019-02-12T13:11:08.308Z,50.47
2019-02-12T13:13:37.344Z,51.45
2019-02-12T13:16:06.392Z,51.93
2019-02-12T13:18:35.441Z,51.75
2019-02-12T13:21:05.033Z,49.93
2019-02-12T13:23:34.051Z,51.31
2019-02-12T13:26:03.069Z,52.31
2019-02-12T13:28:32.376Z,51.28
2019-02-12T13:31:01.410Z,50.69
2019-02-12T13:33:30.446Z,51.15
2019-02-12T13:35:59.700Z,52.94
2019-02-12T13:38:29.036Z,54.24
2019-02-12T13:40:58.325Z,53.99
2019-02-12T13:43:27.595Z,55.54
2019-02-12T13:45:56.624Z,57.40
2019-02-12T13:48:25.649Z,56.52
2019-02-12T13:50:54.664Z,54.05
2019-02-12T13:53:23.690Z,54.41
2019-02-12T13:55:53.044Z,55.09
2019-02-12T13:58:22.079Z,57.73
2019-02-12T14:00:51.080Z,58.78
2019-02-12T14:03:22.477Z,59.29
2019-02-12T14:05:51.269Z,59.22
2019-02-12T14:08:20.870Z,58.93
2019-02-12T14:10:49.936Z,56.97
2019-02-12T14:13:18.966Z,56.40
2019-02-12T14:15:48.278Z,53.97
2019-02-12T14:18:17.562Z,53.76
2019-02-12T14:20:46.932Z,52.84
2019-02-12T14:23:16.898Z,54.43
2019-02-12T14:25:45.904Z,52.69
2019-02-12T14:28:14.950Z,51.74
2019-02-12T14:30:43.994Z,52.04
2019-02-12T14:33:13.018Z,52.13
2019-02-12T14:35:42.362Z,51.08
2019-02-12T14:38:11.975Z,51.48
2019-02-12T14:40:40.979Z,50.82
2019-02-12T14:43:14.106Z,52.25
2019-02-12T14:45:41.178Z,51.34
2019-02-12T14:48:10.610Z,52.47
2019-02-12T14:50:39.947Z,51.01
2019-02-12T14:53:08.949Z,51.97
2019-02-12T14:55:38.374Z,51.86
2019-02-12T14:58:07.364Z,53.67
2019-02-12T15:00:36.787Z,52.43
2019-02-12T15:03:05.912Z,54.05
2019-02-12T15:05:34.979Z,54.17
2019-02-12T15:08:03.999Z,55.52
2019-02-12T15:10:33.038Z,55.51
2019-02-12T15:13:02.044Z,56.53
2019-02-12T15:15:31.754Z,56.33
2019-02-12T15:18:00.757Z,57.26
2019-02-12T15:20:29.754Z,57.95
2019-02-12T15:22:58.765Z,58.54
2019-02-12T15:25:28.074Z,58.87
2019-02-12T15:27:57.490Z,59.74
2019-02-12T15:30:26.508Z,59.67
2019-02-12T15:32:55.878Z,59.26
2019-02-12T15:35:24.896Z,60.06
2019-02-12T15:37:54.320Z,60.07
2019-02-12T15:40:23.366Z,59.30
2019-02-12T15:42:52.414Z,59.98
2019-02-12T15:45:21.813Z,60.20
2019-02-12T15:47:51.180Z,61.31
2019-02-12T15:50:20.267Z,61.02
2019-02-12T15:52:49.737Z,62.18
2019-02-12T15:55:19.083Z,61.78
2019-02-12T15:57:48.124Z,62.44
2019-02-12T16:00:18.540Z,62.66
2019-02-12T16:02:48.343Z,64.14
2019-02-12T16:05:17.371Z,64.14
2019-02-12T16:07:47.760Z,64.14
2019-02-12T16:10:19.698Z,65.21
2019-02-12T16:12:51.471Z,66.74
2019-02-12T16:15:23.893Z,66.97
2019-02-12T16:17:51.936Z,66.39
2019-02-12T16:20:20.965Z,67.66
2019-02-12T16:22:50.263Z,67.32
2019-02-12T16:25:19.388Z,68.21
2019-02-12T16:27:50.976Z,68.36
2019-02-12T16:30:20.335Z,68.97
2019-02-12T16:32:49.357Z,68.74
2019-02-12T16:35:18.911Z,69.19
2019-02-12T16:37:47.926Z,71.01
2019-02-12T16:40:17.029Z,70.23
2019-02-12T16:42:46.328Z,70.54
2019-02-12T16:45:30.778Z,71.27
2019-02-12T16:48:00.301Z,71.65
2019-02-12T16:50:29.456Z,71.90
2019-02-12T16:52:58.602Z,72.36
2019-02-12T16:55:27.624Z,72.43
2019-02-12T16:57:56.664Z,73.21
2019-02-12T17:00:25.966Z,72.98
2019-02-12T17:02:55.049Z,73.44
2019-02-12T17:05:24.090Z,73.85
2019-02-12T17:07:53.178Z,73.45
2019-02-12T17:10:22.276Z,74.34
2019-02-12T17:12:51.309Z,75.23
2019-02-12T17:15:20.406Z,75.53
2019-02-12T17:17:49.719Z,75.05
2019-02-12T17:20:19.075Z,75.33
2019-02-12T17:22:48.110Z,75.67
2019-02-12T17:25:17.534Z,75.97
2019-02-12T17:27:48.009Z,76.85
2019-02-12T17:30:17.358Z,76.84
2019-02-12T17:32:46.564Z,76.44
2019-02-12T17:35:16.001Z,77.16
2019-02-12T17:37:45.370Z,77.63
2019-02-12T17:40:14.501Z,77.98
2019-02-12T17:42:43.822Z,77.17
2019-02-12T17:45:14.079Z,78.72
2019-02-12T17:47:43.168Z,79.13
2019-02-12T17:50:12.722Z,77.96
2019-02-12T17:52:41.831Z,78.69
2019-02-12T17:55:11.300Z,78.90
2019-02-12T17:57:40.618Z,79.28
2019-02-12T18:00:14.970Z,78.68
2019-02-12T18:02:44.004Z,78.04
2019-02-12T18:05:13.791Z,79.42
2019-02-12T18:07:42.826Z,79.47
2019-02-12T18:10:12.434Z,78.67
2019-02-12T18:12:41.539Z,78.98
2019-02-12T18:15:11.154Z,78.62
2019-02-12T18:17:40.236Z,79.08
2019-02-12T18:20:10.341Z,79.07
2019-02-12T18:22:39.356Z,78.99
2019-02-12T18:25:09.258Z,78.93
2019-02-12T18:27:38.325Z,79.36
2019-02-12T18:30:09.660Z,78.60
2019-02-12T18:32:38.846Z,78.89
2019-02-12T18:35:08.198Z,78.46
2019-02-12T18:37:37.925Z,79.58
2019-02-12T18:40:07.541Z,80.17
2019-02-12T18:42:36.842Z,80.81
2019-02-12T18:45:06.516Z,80.56
2019-02-12T18:47:35.594Z,80.36
2019-02-12T18:50:05.888Z,80.60
2019-02-12T18:52:35.047Z,80.13
2019-02-12T18:55:04.909Z,80.13
2019-02-12T18:57:34.208Z,81.12
2019-02-12T19:00:03.737Z,81.03
2019-02-12T19:02:32.864Z,81.26
2019-02-12T19:05:02.305Z,81.96
2019-02-12T19:07:31.374Z,81.58
2019-02-12T19:10:00.592Z,81.93
2019-02-12T19:12:29.864Z,81.69
2019-02-12T19:14:59.347Z,81.29
2019-02-12T19:17:28.437Z,81.41
2019-02-12T19:19:57.491Z,80.50
2019-02-12T19:22:27.628Z,81.15
2019-02-12T19:24:56.640Z,80.62
2019-02-12T19:27:26.046Z,80.75
2019-02-12T19:29:55.070Z,81.21
2019-02-12T19:32:24.381Z,81.36
2019-02-12T19:34:53.677Z,80.95
2019-02-12T19:37:23.938Z,80.44
2019-02-12T19:39:53.126Z,79.84
2019-02-12T19:42:22.671Z,80.20
2019-02-12T19:44:52.115Z,81.31
2019-02-12T19:47:21.598Z,81.73
2019-02-12T19:49:50.707Z,80.89
2019-02-12T19:52:20.136Z,81.19
2019-02-12T19:54:49.245Z,80.44
2019-02-12T19:57:18.301Z,80.86
2019-02-12T19:59:47.396Z,80.85
2019-02-12T20:02:16.824Z,80.74
2019-02-12T20:04:46.181Z,80.37
2019-02-12T20:07:15.226Z,80.53
2019-02-12T20:09:44.591Z,80.09
2019-02-12T20:12:13.691Z,79.64
2019-02-12T20:14:42.734Z,80.30
2019-02-12T20:17:11.775Z,80.14
2019-02-12T20:19:41.103Z,80.55
2019-02-12T20:22:10.138Z,80.56
2019-02-12T20:24:39.184Z,80.74
2019-02-12T20:27:08.973Z,81.25
2019-02-12T20:29:38.277Z,82.17
2019-02-12T20:32:07.328Z,82.19
2019-02-12T20:34:36.465Z,82.84
2019-02-12T20:37:05.510Z,83.63
2019-02-12T20:39:34.962Z,83.33
2019-02-12T20:42:04.379Z,83.26
2019-02-12T20:44:33.765Z,82.60
2019-02-12T20:47:03.177Z,82.27
2019-02-12T20:49:32.388Z,81.36
2019-02-12T20:52:01.423Z,82.05
2019-02-12T20:54:30.771Z,82.73
2019-02-12T20:56:59.827Z,82.95
2019-02-12T20:59:29.182Z,83.08
2019-02-12T21:01:58.642Z,82.82
2019-02-12T21:04:27.713Z,84.26
2019-02-12T21:06:56.721Z,84.45
2019-02-12T21:09:26.248Z,84.63
2019-02-12T21:11:55.254Z,84.26
2019-02-12T21:14:24.318Z,85.43
2019-02-12T21:16:53.343Z,84.77
2019-02-12T21:19:22.363Z,85.46
2019-02-12T21:21:51.668Z,85.22
2019-02-12T21:24:21.089Z,85.67
2019-02-12T21:26:50.092Z,86.11
2019-02-12T21:29:19.144Z,85.41
2019-02-12T21:31:48.695Z,85.48
2019-02-12T21:34:17.709Z,85.73
2019-02-12T21:36:46.799Z,86.62
2019-02-12T21:39:17.804Z,86.95
2019-02-12T21:41:46.837Z,87.05
2019-02-12T21:44:16.438Z,87.08
2019-02-12T21:46:45.468Z,86.34
2019-02-12T21:49:14.535Z,86.60
2019-02-12T21:51:43.582Z,86.86
2019-02-12T21:54:12.639Z,86.35
2019-02-12T21:56:42.060Z,86.79
2019-02-12T21:59:11.111Z,87.11
2019-02-12T22:01:40.110Z,86.69
2019-02-12T22:04:09.460Z,87.19
2019-02-12T22:06:39.064Z,86.88
2019-02-12T22:09:08.387Z,86.83
2019-02-12T22:11:37.940Z,86.64
2019-02-12T22:14:07.031Z,86.79
2019-02-12T22:16:36.360Z,87.16
2019-02-12T22:19:05.474Z,87.21
2019-02-12T22:21:34.496Z,87.89
2019-02-12T22:24:03.557Z,88.33
2019-02-12T22:26:32.873Z,88.55
2019-02-12T22:29:01.943Z,88.94
2019-02-12T22:31:30.946Z,88.95
2019-02-12T22:34:00.337Z,88.78
2019-02-12T22:36:29.361Z,88.42
2019-02-12T22:38:58.566Z,89.20
2019-02-12T22:41:27.610Z,88.54
2019-02-12T22:43:56.669Z,89.30
2019-02-12T22:46:25.777Z,89.38
2019-02-12T22:48:55.185Z,88.92
2019-02-12T22:51:24.581Z,89.45
2019-02-12T22:53:54.346Z,89.93
2019-02-12T22:56:23.735Z,89.10
2019-02-12T22:58:52.772Z,88.97
2019-02-12T23:01:32.591Z,88.73
2019-02-12T23:04:01.612Z,88.53
2019-02-12T23:06:31.115Z,88.66
2019-02-12T23:09:00.527Z,88.26
2019-02-12T23:11:29.890Z,88.25
2019-02-12T23:13:58.970Z,88.57
2019-02-12T23:16:28.003Z,88.59
2019-02-12T23:18:57.808Z,87.84
2019-02-12T23:21:26.897Z,88.19
2019-02-12T23:23:55.895Z,88.23
2019-02-12T23:26:25.343Z,88.90
2019-02-12T23:28:54.397Z,88.23
2019-02-12T23:31:23.811Z,88.92
2019-02-12T23:33:52.872Z,89.32
2019-02-12T23:36:21.917Z,89.54
2019-02-12T23:38:50.921Z,89.39
2019-02-12T23:41:20.010Z,89.08
2019-02-12T23:43:49.029Z,89.35
2019-02-12T23:46:18.053Z,89.53
2019-02-12T23:48:48.583Z,89.43
2019-02-12T23:51:17.663Z,89.17
2019-02-12T23:53:46.791Z,88.77
2019-02-12T23:56:15.818Z,88.67
2019-02-12T23:58:45.157Z,88.51
